createdAt,value
2018-04-13T00:02:48.982Z,3.40
2018-04-13T00:05:52.775Z,3.60
2018-04-13T00:08:56.759Z,3.07
2018-04-13T00:12:00.644Z,3.97
2018-04-13T00:15:04.451Z,3.47
2018-04-13T00:18:08.235Z,3.50
2018-04-13T00:21:12.044Z,3.10
2018-04-13T00:24:15.846Z,3.73
2018-04-13T00:27:20.397Z,3.63
2018-04-13T00:30:24.209Z,3.30
2018-04-13T00:33:27.997Z,3.53
2018-04-13T00:36:31.797Z,3.27
2018-04-13T00:39:35.585Z,3.23
2018-04-13T00:42:39.412Z,3.17
2018-04-13T00:45:43.219Z,3.73
2018-04-13T00:48:47.736Z,3.20
2018-04-13T00:51:51.536Z,3.70
2018-04-13T00:54:55.319Z,3.30
2018-04-13T00:57:59.858Z,3.40
2018-04-13T01:01:04.392Z,2.90
2018-04-13T01:04:08.960Z,3.33
2018-04-13T01:07:12.764Z,3.40
2018-04-13T01:10:16.551Z,3.50
2018-04-13T01:13:20.350Z,3.57
2018-04-13T01:16:24.147Z,3.37
2018-04-13T01:19:27.924Z,3.40
2018-04-13T01:22:31.721Z,3.50
2018-04-13T01:25:35.509Z,3.50
2018-04-13T01:28:40.035Z,3.37
2018-04-13T01:31:43.845Z,3.93
2018-04-13T01:34:47.617Z,3.20
2018-04-13T01:37:51.416Z,3.97
2018-04-13T01:40:55.958Z,4.70
2018-04-13T01:44:00.476Z,3.63
2018-04-13T01:47:04.281Z,3.10
2018-04-13T01:50:08.050Z,3.20
2018-04-13T01:53:12.597Z,3.27
2018-04-13T01:56:17.142Z,3.40
2018-04-13T01:59:20.920Z,3.37
2018-04-13T02:02:24.729Z,3.30
2018-04-13T02:05:28.509Z,3.20
2018-04-13T02:08:32.307Z,3.70
2018-04-13T02:11:36.119Z,4.07
2018-04-13T02:14:39.889Z,3.90
2018-04-13T02:17:43.697Z,3.40
2018-04-13T02:20:47.472Z,3.20
2018-04-13T02:23:51.287Z,3.27
2018-04-13T02:26:55.094Z,3.70
2018-04-13T02:29:59.610Z,3.40
2018-04-13T02:33:03.402Z,3.43
2018-04-13T02:36:07.213Z,3.40
2018-04-13T02:39:10.989Z,3.17
2018-04-13T02:42:14.793Z,3.60
2018-04-13T02:45:18.677Z,3.20
2018-04-13T02:48:22.475Z,3.13
2018-04-13T02:51:26.278Z,3.57
2018-04-13T02:54:30.052Z,3.30
2018-04-13T02:57:33.851Z,3.50
2018-04-13T03:00:38.363Z,3.50
2018-04-13T03:03:42.172Z,3.43
2018-04-13T03:06:45.984Z,3.83
2018-04-13T03:09:49.765Z,3.70
2018-04-13T03:12:54.316Z,3.60
2018-04-13T03:15:58.833Z,3.83
2018-04-13T03:19:02.636Z,3.60
2018-04-13T03:22:06.432Z,3.50
2018-04-13T03:25:10.258Z,3.57
2018-04-13T03:28:14.060Z,4.07
2018-04-13T03:31:18.590Z,4.30
2018-04-13T03:34:23.144Z,3.27
2018-04-13T03:37:26.953Z,3.40
2018-04-13T03:40:31.469Z,3.77
2018-04-13T03:43:35.275Z,3.80
2018-04-13T03:46:39.048Z,3.63
2018-04-13T03:49:42.863Z,3.80
2018-04-13T03:52:46.673Z,3.93
2018-04-13T03:55:50.452Z,3.70
2018-04-13T03:58:54.252Z,3.90
2018-04-13T04:01:58.058Z,3.70
2018-04-13T04:05:01.861Z,3.53
2018-04-13T04:08:05.668Z,3.67
2018-04-13T04:11:09.445Z,3.60
2018-04-13T04:14:13.257Z,3.47
2018-04-13T04:17:17.808Z,3.80
2018-04-13T04:20:39.514Z,3.60
2018-04-13T04:24:01.249Z,3.80
2018-04-13T04:27:05.034Z,4.13
2018-04-13T04:30:08.835Z,3.90
2018-04-13T04:33:13.377Z,3.67
2018-04-13T04:36:17.890Z,3.50
2018-04-13T04:39:21.684Z,3.90
2018-04-13T04:42:25.493Z,4.30
2018-04-13T04:45:29.270Z,3.77
2018-04-13T04:48:33.077Z,3.97
2018-04-13T04:51:36.853Z,3.73
2018-04-13T04:54:40.658Z,3.83
2018-04-13T04:57:45.194Z,3.70
2018-04-13T05:00:49.738Z,3.93
2018-04-13T05:03:54.318Z,3.80
2018-04-13T05:06:58.121Z,3.90
2018-04-13T05:10:01.930Z,4.20
2018-04-13T05:13:06.517Z,4.17
2018-04-13T05:16:10.303Z,4.03
2018-04-13T05:19:14.852Z,4.03
2018-04-13T05:22:18.630Z,4.30
2018-04-13T05:25:22.490Z,3.90
2018-04-13T05:28:27.096Z,4.00
2018-04-13T05:31:30.878Z,4.53
2018-04-13T05:34:34.722Z,4.17
2018-04-13T05:37:38.583Z,4.40
2018-04-13T05:40:42.381Z,4.17
2018-04-13T05:43:46.190Z,4.07
2018-04-13T05:46:50.713Z,4.17
2018-04-13T05:49:54.526Z,4.00
2018-04-13T05:52:58.382Z,4.47
2018-04-13T05:56:02.192Z,4.13
2018-04-13T05:59:06.018Z,3.80
2018-04-13T06:02:09.799Z,4.00
2018-04-13T06:05:14.361Z,4.33
2018-04-13T06:08:18.162Z,4.00
2018-04-13T06:11:21.932Z,4.77
2018-04-13T06:14:25.726Z,4.23
2018-04-13T06:17:30.239Z,4.10
2018-04-13T06:20:34.121Z,4.20
2018-04-13T06:23:37.928Z,4.40
2018-04-13T06:26:41.718Z,4.20
2018-04-13T06:29:45.508Z,4.33
2018-04-13T06:32:49.284Z,4.57
2018-04-13T06:35:53.844Z,4.53
2018-04-13T06:38:57.650Z,4.57
2018-04-13T06:42:02.178Z,4.00
2018-04-13T06:45:06.718Z,4.03
2018-04-13T06:48:10.530Z,3.90
2018-04-13T06:51:14.420Z,4.07
2018-04-13T06:54:18.288Z,3.90
2018-04-13T06:57:22.081Z,4.30
2018-04-13T07:00:25.897Z,4.10
2018-04-13T07:03:29.698Z,4.23
2018-04-13T07:06:33.500Z,3.97
2018-04-13T07:09:38.047Z,4.30
2018-04-13T07:12:42.562Z,4.20
2018-04-13T07:15:46.373Z,4.07
2018-04-13T07:18:50.174Z,4.07
2018-04-13T07:21:53.957Z,4.37
2018-04-13T07:24:58.540Z,4.30
2018-04-13T07:28:02.310Z,4.07
2018-04-13T07:31:06.876Z,4.07
2018-04-13T07:34:11.293Z,4.23
2018-04-13T07:37:14.537Z,4.57
2018-04-13T07:40:18.336Z,3.97
2018-04-13T07:43:22.862Z,4.87
2018-04-13T07:46:27.424Z,4.23
2018-04-13T07:49:31.231Z,4.13
2018-04-13T07:52:35.756Z,3.93
2018-04-13T07:55:39.559Z,3.80
2018-04-13T07:58:43.338Z,4.30
2018-04-13T08:01:47.219Z,4.60
2018-04-13T08:04:51.046Z,4.43
2018-04-13T08:07:54.817Z,4.67
2018-04-13T08:10:59.365Z,4.40
2018-04-13T08:14:03.135Z,3.93
2018-04-13T08:17:06.945Z,4.50
2018-04-13T08:20:10.743Z,4.10
2018-04-13T08:23:14.529Z,4.00
2018-04-13T08:26:18.336Z,4.60
2018-04-13T08:29:22.150Z,3.80
2018-04-13T08:32:25.932Z,4.33
2018-04-13T08:35:29.811Z,3.80
2018-04-13T08:38:33.545Z,4.70
2018-04-13T08:41:37.387Z,4.10
2018-04-13T08:44:41.935Z,4.20
2018-04-13T08:47:45.724Z,4.60
2018-04-13T08:50:49.521Z,4.00
2018-04-13T08:53:53.299Z,4.00
2018-04-13T08:56:57.131Z,4.07
2018-04-13T09:00:01.678Z,3.77
2018-04-13T09:03:05.478Z,3.83
2018-04-13T09:06:09.294Z,4.23
2018-04-13T09:09:13.816Z,4.10
2018-04-13T09:12:17.617Z,3.87
2018-04-13T09:15:21.418Z,4.40
2018-04-13T09:18:25.195Z,3.97
2018-04-13T09:21:29.751Z,3.93
2018-04-13T09:24:33.549Z,4.00
2018-04-13T09:27:37.430Z,3.70
2018-04-13T09:30:41.278Z,4.20
2018-04-13T09:33:45.056Z,4.60
2018-04-13T09:36:48.864Z,3.97
2018-04-13T09:39:53.401Z,4.13
2018-04-13T09:42:57.211Z,3.80
2018-04-13T09:46:01.014Z,3.97
2018-04-13T09:49:04.864Z,3.87
2018-04-13T09:52:08.661Z,4.33
2018-04-13T09:55:12.472Z,3.87
2018-04-13T09:58:16.248Z,4.00
2018-04-13T10:01:21.584Z,4.10
2018-04-13T10:07:55.783Z,3.65
2018-04-13T10:10:59.598Z,4.20
2018-04-13T10:14:03.396Z,4.33
2018-04-13T10:17:07.209Z,4.47
2018-04-13T10:20:11.021Z,4.27
2018-04-13T10:23:14.814Z,3.73
2018-04-13T10:26:22.679Z,4.13
2018-04-13T10:29:26.462Z,4.23
2018-04-13T10:32:30.263Z,4.00
2018-04-13T10:35:34.823Z,4.57
2018-04-13T10:38:38.613Z,3.83
2018-04-13T10:41:42.429Z,4.20
2018-04-13T10:44:46.205Z,4.30
2018-04-13T10:47:50.013Z,4.23
2018-04-13T10:50:53.821Z,4.10
2018-04-13T10:53:58.348Z,4.17
2018-04-13T10:57:02.905Z,4.30
2018-04-13T11:00:07.437Z,3.70
2018-04-13T11:03:11.994Z,4.03
2018-04-13T11:06:16.532Z,4.30
2018-04-13T11:09:21.058Z,4.33
2018-04-13T11:12:25.610Z,4.43
2018-04-13T11:15:29.418Z,4.20
2018-04-13T11:18:33.262Z,4.10
2018-04-13T11:21:37.091Z,4.40
2018-04-13T11:24:41.626Z,4.50
2018-04-13T11:27:45.444Z,4.23
2018-04-13T11:30:49.993Z,3.87
2018-04-13T11:33:54.505Z,4.33
2018-04-13T11:36:58.302Z,5.03
2018-04-13T11:40:02.084Z,4.30
2018-04-13T11:43:06.657Z,4.30
2018-04-13T11:46:10.577Z,4.20
2018-04-13T11:49:14.368Z,4.60
2018-04-13T11:52:18.914Z,4.00
2018-04-13T11:55:22.690Z,4.33
2018-04-13T11:58:26.502Z,3.63
2018-04-13T12:01:30.315Z,4.10
2018-04-13T12:04:34.097Z,4.60
2018-04-13T12:07:37.897Z,4.17
2018-04-13T12:10:41.685Z,4.07
2018-04-13T12:13:45.496Z,4.63
2018-04-13T12:16:49.291Z,4.37
2018-04-13T12:19:53.070Z,4.50
2018-04-13T12:22:56.901Z,4.37
2018-04-13T12:26:00.684Z,4.17
2018-04-13T12:29:05.270Z,4.27
2018-04-13T12:32:09.072Z,4.47
2018-04-13T12:35:12.855Z,4.40
2018-04-13T12:38:16.688Z,4.33
2018-04-13T12:41:21.213Z,4.23
2018-04-13T12:44:25.011Z,4.33
2018-04-13T12:47:28.810Z,3.90
2018-04-13T12:50:32.593Z,4.40
2018-04-13T12:53:37.288Z,4.17
2018-04-13T12:56:41.003Z,4.80
2018-04-13T12:59:44.797Z,4.00
2018-04-13T13:02:49.341Z,3.93
2018-04-13T13:05:53.858Z,4.07
2018-04-13T13:08:57.670Z,4.50
2018-04-13T13:12:01.509Z,4.40
2018-04-13T13:15:05.311Z,4.43
2018-04-13T13:18:09.133Z,4.27
2018-04-13T13:21:12.918Z,4.30
2018-04-13T13:24:16.748Z,4.20
2018-04-13T13:27:20.548Z,4.77
2018-04-13T13:30:25.075Z,4.30
2018-04-13T13:33:28.881Z,4.50
2018-04-13T13:36:32.657Z,4.33
2018-04-13T13:39:36.465Z,4.27
2018-04-13T13:42:41.036Z,3.87
2018-04-13T13:45:44.828Z,4.47
2018-04-13T13:48:49.369Z,4.30
2018-04-13T13:51:53.897Z,4.10
2018-04-13T13:54:57.729Z,4.00
2018-04-13T13:58:02.285Z,4.33
2018-04-13T14:01:06.802Z,4.47
2018-04-13T14:04:10.595Z,4.30
2018-04-13T14:07:14.373Z,4.47
2018-04-13T14:10:18.929Z,4.23
2018-04-13T14:13:22.733Z,4.23
2018-04-13T14:16:27.254Z,4.30
2018-04-13T14:19:31.048Z,4.50
2018-04-13T14:22:34.850Z,4.23
2018-04-13T14:25:38.659Z,4.30
2018-04-13T14:28:42.477Z,3.97
2018-04-13T14:31:46.996Z,3.97
2018-04-13T14:34:51.554Z,4.37
2018-04-13T14:37:56.100Z,4.17
2018-04-13T14:41:00.620Z,4.03
2018-04-13T14:44:05.172Z,4.60
2018-04-13T14:47:09.691Z,4.13
2018-04-13T14:50:13.602Z,4.93
2018-04-13T14:53:17.402Z,4.47
2018-04-13T14:56:21.187Z,4.20
2018-04-13T14:59:25.733Z,4.57
2018-04-13T15:02:30.242Z,4.33
2018-04-13T15:05:34.526Z,4.97
2018-04-13T15:08:38.350Z,4.37
2018-04-13T15:11:42.869Z,4.33
2018-04-13T15:14:46.669Z,4.60
2018-04-13T15:17:50.443Z,4.70
2018-04-13T15:20:54.991Z,4.63
2018-04-13T15:23:59.538Z,4.57
2018-04-13T15:27:03.459Z,4.57
2018-04-13T15:30:08.017Z,4.50
2018-04-13T15:33:12.634Z,4.63
2018-04-13T15:36:16.410Z,4.27
2018-04-13T15:39:20.215Z,5.07
2018-04-13T15:42:25.175Z,4.63
2018-04-13T15:45:29.121Z,4.30
2018-04-13T15:48:33.529Z,4.77
2018-04-13T15:51:37.509Z,4.63
2018-04-13T15:54:41.275Z,4.70
2018-04-13T15:57:45.064Z,4.80
2018-04-13T16:00:49.606Z,4.67
2018-04-13T16:03:54.164Z,4.27
2018-04-13T16:06:58.083Z,5.07
2018-04-13T16:10:02.742Z,4.13
2018-04-13T16:13:07.265Z,5.23
2018-04-13T16:16:11.095Z,4.43
2018-04-13T16:19:15.035Z,5.37
2018-04-13T16:22:18.877Z,4.73
2018-04-13T16:25:22.686Z,5.00
2018-04-13T16:28:26.461Z,5.27
2018-04-13T16:31:30.262Z,4.63
2018-04-13T16:34:34.183Z,4.97
2018-04-13T16:37:37.977Z,4.70
2018-04-13T16:40:41.884Z,5.17
2018-04-13T16:43:46.428Z,4.77
2018-04-13T16:46:50.215Z,4.73
2018-04-13T16:49:54.035Z,4.60
2018-04-13T16:52:57.817Z,4.20
2018-04-13T16:56:01.658Z,4.63
2018-04-13T16:59:05.468Z,4.70
2018-04-13T17:02:09.253Z,4.93
2018-04-13T17:05:13.798Z,4.60
2018-04-13T17:08:18.361Z,4.97
2018-04-13T17:11:22.164Z,4.83
2018-04-13T17:14:25.979Z,4.47
2018-04-13T17:17:29.778Z,4.63
2018-04-13T17:20:33.589Z,4.37
2018-04-13T17:23:38.143Z,4.60
2018-04-13T17:26:41.962Z,4.47
2018-04-13T17:29:45.791Z,4.50
2018-04-13T17:32:49.636Z,4.93
2018-04-13T17:35:54.195Z,4.60
2018-04-13T17:38:58.722Z,4.60
2018-04-13T17:42:02.529Z,5.10
2018-04-13T17:45:06.342Z,5.00
2018-04-13T17:48:10.164Z,4.57
2018-04-13T17:51:13.969Z,4.60
2018-04-13T17:54:17.765Z,4.40
2018-04-13T17:57:22.309Z,4.77
2018-04-13T18:00:26.873Z,4.90
2018-04-13T18:03:30.664Z,4.50
2018-04-13T18:06:34.521Z,5.27
2018-04-13T18:09:38.330Z,4.60
2018-04-13T18:12:42.111Z,4.63
2018-04-13T18:15:45.911Z,4.57
2018-04-13T18:18:49.684Z,4.40
2018-04-13T18:21:54.241Z,4.60
2018-04-13T18:24:58.045Z,4.80
2018-04-13T18:28:01.922Z,4.23
2018-04-13T18:31:05.781Z,4.67
2018-04-13T18:34:09.577Z,4.70
2018-04-13T18:37:13.417Z,4.57
2018-04-13T18:40:17.235Z,4.37
2018-04-13T18:43:21.022Z,4.83
2018-04-13T18:46:24.849Z,4.43
2018-04-13T18:49:28.659Z,4.27
2018-04-13T18:52:33.225Z,4.60
2018-04-13T18:55:37.048Z,4.43
2018-04-13T18:58:40.886Z,4.90
2018-04-13T19:01:44.716Z,4.30
2018-04-13T19:04:48.612Z,4.70
2018-04-13T19:07:52.433Z,4.20
2018-04-13T19:11:03.023Z,4.17
2018-04-13T19:14:06.839Z,4.73
2018-04-13T19:17:10.677Z,4.60
2018-04-13T19:20:14.570Z,4.63
2018-04-13T19:23:18.385Z,4.77
2018-04-13T19:26:22.319Z,4.33
2018-04-13T19:29:26.840Z,4.30
2018-04-13T19:32:30.711Z,4.67
2018-04-13T19:35:35.404Z,5.00
2018-04-13T19:38:39.201Z,4.67
2018-04-13T19:41:43.013Z,4.67
2018-04-13T19:44:46.843Z,4.37
2018-04-13T19:47:50.642Z,4.30
2018-04-13T19:50:54.464Z,4.60
2018-04-13T19:53:58.273Z,5.17
2018-04-13T19:57:02.097Z,4.83
2018-04-13T20:00:05.897Z,4.90
2018-04-13T20:03:09.710Z,4.77
2018-04-13T20:06:13.530Z,4.43
2018-04-13T20:09:18.099Z,4.43
2018-04-13T20:12:21.905Z,4.43
2018-04-13T20:15:25.709Z,4.43
2018-04-13T20:18:30.305Z,4.87
2018-04-13T20:21:34.266Z,4.67
2018-04-13T20:24:38.047Z,4.80
2018-04-13T20:27:41.846Z,4.60
2018-04-13T20:30:45.660Z,5.00
2018-04-13T20:33:50.188Z,4.63
2018-04-13T20:36:54.730Z,4.60
2018-04-13T20:39:59.256Z,4.67
2018-04-13T20:43:03.094Z,4.70
2018-04-13T20:46:06.894Z,4.43
2018-04-13T20:49:10.709Z,4.37
2018-04-13T20:52:14.508Z,4.60
2018-04-13T20:55:18.282Z,4.63
2018-04-13T20:58:22.080Z,5.17
2018-04-13T21:01:25.891Z,4.40
2018-04-13T21:04:29.675Z,4.67
2018-04-13T21:07:33.485Z,4.70
2018-04-13T21:10:38.009Z,5.03
2018-04-13T21:13:41.823Z,5.33
2018-04-13T21:16:45.694Z,4.87
2018-04-13T21:19:50.228Z,4.63
2018-04-13T21:22:54.027Z,5.37
2018-04-13T21:25:57.811Z,4.83
2018-04-13T21:29:01.623Z,5.43
2018-04-13T21:32:06.176Z,5.80
2018-04-13T21:35:09.953Z,4.93
2018-04-13T21:38:13.793Z,5.00
2018-04-13T21:41:17.572Z,5.50
2018-04-13T21:44:21.377Z,5.53
2018-04-13T21:47:25.188Z,5.10
2018-04-13T21:50:29.743Z,5.17
2018-04-13T21:53:33.639Z,5.13
2018-04-13T21:56:37.429Z,4.77
2018-04-13T21:59:41.206Z,5.27
2018-04-13T22:02:45.041Z,4.83
2018-04-13T22:05:48.825Z,5.30
2018-04-13T22:08:52.634Z,4.70
2018-04-13T22:11:56.457Z,5.20
2018-04-13T22:15:00.305Z,5.47
2018-04-13T22:18:04.113Z,5.33
2018-04-13T22:21:07.914Z,5.60
2018-04-13T22:24:11.713Z,5.00
2018-04-13T22:27:15.521Z,5.73
2018-04-13T22:30:20.045Z,6.03
2018-04-13T22:33:23.885Z,5.40
2018-04-13T22:36:28.421Z,6.30
2018-04-13T22:39:32.986Z,6.00
2018-04-13T22:42:36.792Z,5.83
2018-04-13T22:45:40.738Z,6.20
2018-04-13T22:48:45.291Z,5.43
2018-04-13T22:51:49.814Z,5.93
2018-04-13T22:54:53.624Z,6.03
2018-04-13T22:57:57.460Z,6.00
2018-04-13T23:01:01.266Z,6.27
2018-04-13T23:04:05.066Z,5.87
2018-04-13T23:07:08.874Z,6.63
2018-04-13T23:10:12.663Z,6.30
2018-04-13T23:13:17.200Z,5.97
2018-04-13T23:16:21.720Z,6.13
2018-04-13T23:19:25.605Z,5.53
2018-04-13T23:22:38.194Z,6.20
2018-04-13T23:25:44.695Z,5.70
2018-04-13T23:28:48.540Z,6.37
2018-04-13T23:31:52.314Z,6.67
2018-04-13T23:34:56.118Z,6.20
2018-04-13T23:37:59.926Z,7.03
2018-04-13T23:41:03.709Z,6.13
2018-04-13T23:44:07.518Z,6.17
2018-04-13T23:47:12.048Z,6.40
2018-04-13T23:50:15.855Z,6.47
2018-04-13T23:53:19.663Z,6.20
2018-04-13T23:56:23.560Z,6.13
2018-04-13T23:59:27.360Z,6.40
